sensor_id;sensor_type;location;lat;lon;timestamp;temperature;humidity
70456;DHT22;57916;51.996;5.180;2022-12-07T00:01:25;8.80;70.00
70456;DHT22;57916;51.996;5.180;2022-12-07T00:03:54;8.90;70.00
70456;DHT22;57916;51.996;5.180;2022-12-07T00:06:23;8.90;70.00
70456;DHT22;57916;51.996;5.180;2022-12-07T00:08:50;8.90;70.20
70456;DHT22;57916;51.996;5.180;2022-12-07T00:11:20;8.80;70.50
70456;DHT22;57916;51.996;5.180;2022-12-07T00:13:51;8.80;70.80
70456;DHT22;57916;51.996;5.180;2022-12-07T00:16:20;8.80;71.10
70456;DHT22;57916;51.996;5.180;2022-12-07T00:18:47;8.90;71.40
70456;DHT22;57916;51.996;5.180;2022-12-07T00:21:20;8.80;71.90
70456;DHT22;57916;51.996;5.180;2022-12-07T00:23:48;8.80;72.20
70456;DHT22;57916;51.996;5.180;2022-12-07T00:26:20;8.80;72.40
70456;DHT22;57916;51.996;5.180;2022-12-07T00:28:48;8.80;72.20
70456;DHT22;57916;51.996;5.180;2022-12-07T00:31:17;8.70;72.00
70456;DHT22;57916;51.996;5.180;2022-12-07T00:33:45;8.80;72.10
70456;DHT22;57916;51.996;5.180;2022-12-07T00:36:17;8.90;72.20
70456;DHT22;57916;51.996;5.180;2022-12-07T00:38:51;8.90;72.00
70456;DHT22;57916;51.996;5.180;2022-12-07T00:41:21;9.00;71.70
70456;DHT22;57916;51.996;5.180;2022-12-07T00:43:48;9.10;71.30
70456;DHT22;57916;51.996;5.180;2022-12-07T00:46:17;9.20;70.80
70456;DHT22;57916;51.996;5.180;2022-12-07T00:48:44;9.20;70.50
70456;DHT22;57916;51.996;5.180;2022-12-07T00:51:13;9.30;70.20
70456;DHT22;57916;51.996;5.180;2022-12-07T00:53:41;9.30;69.70
70456;DHT22;57916;51.996;5.180;2022-12-07T00:56:17;9.20;69.40
70456;DHT22;57916;51.996;5.180;2022-12-07T00:58:44;9.20;69.20
70456;DHT22;57916;51.996;5.180;2022-12-07T01:01:15;9.20;69.10
70456;DHT22;57916;51.996;5.180;2022-12-07T01:03:42;9.20;69.00
70456;DHT22;57916;51.996;5.180;2022-12-07T01:06:14;9.10;68.90
70456;DHT22;57916;51.996;5.180;2022-12-07T01:08:42;9.10;68.90
70456;DHT22;57916;51.996;5.180;2022-12-07T01:11:12;9.00;69.00
70456;DHT22;57916;51.996;5.180;2022-12-07T01:13:40;8.90;69.20
70456;DHT22;57916;51.996;5.180;2022-12-07T01:16:10;8.80;69.40
70456;DHT22;57916;51.996;5.180;2022-12-07T01:18:38;8.70;69.50
70456;DHT22;57916;51.996;5.180;2022-12-07T01:21:06;8.60;69.70
70456;DHT22;57916;51.996;5.180;2022-12-07T01:23:34;8.50;69.80
70456;DHT22;57916;51.996;5.180;2022-12-07T01:26:09;8.40;70.10
70456;DHT22;57916;51.996;5.180;2022-12-07T01:28:37;8.40;70.20
70456;DHT22;57916;51.996;5.180;2022-12-07T01:31:10;8.30;70.50
70456;DHT22;57916;51.996;5.180;2022-12-07T01:33:39;8.30;70.50
70456;DHT22;57916;51.996;5.180;2022-12-07T01:38:43;8.20;70.60
70456;DHT22;57916;51.996;5.180;2022-12-07T01:41:10;8.20;70.40
70456;DHT22;57916;51.996;5.180;2022-12-07T01:46:48;8.30;70.50
70456;DHT22;57916;51.996;5.180;2022-12-07T01:54:42;8.30;70.50
70456;DHT22;57916;51.996;5.180;2022-12-07T01:57:10;8.30;70.50
70456;DHT22;57916;51.996;5.180;2022-12-07T01:59:38;8.30;70.60
70456;DHT22;57916;51.996;5.180;2022-12-07T02:02:13;8.20;70.80
70456;DHT22;57916;51.996;5.180;2022-12-07T02:04:40;8.20;71.90
70456;DHT22;57916;51.996;5.180;2022-12-07T02:07:07;8.10;71.00
70456;DHT22;57916;51.996;5.180;2022-12-07T02:09:34;8.10;71.30
70456;DHT22;57916;51.996;5.180;2022-12-07T02:12:02;8.00;71.30
70456;DHT22;57916;51.996;5.180;2022-12-07T02:14:29;8.00;71.40
70456;DHT22;57916;51.996;5.180;2022-12-07T02:17:14;8.00;71.60
70456;DHT22;57916;51.996;5.180;2022-12-07T02:20:21;7.90;72.00
70456;DHT22;57916;51.996;5.180;2022-12-07T02:23:29;7.90;72.50
70456;DHT22;57916;51.996;5.180;2022-12-07T02:28:55;8.00;73.60
70456;DHT22;57916;51.996;5.180;2022-12-07T02:31:28;8.00;73.70
70456;DHT22;57916;51.996;5.180;2022-12-07T02:34:23;8.10;73.60
70456;DHT22;57916;51.996;5.180;2022-12-07T02:37:03;8.20;73.50
70456;DHT22;57916;51.996;5.180;2022-12-07T02:39:44;8.30;73.20
70456;DHT22;57916;51.996;5.180;2022-12-07T02:42:22;8.40;73.00
70456;DHT22;57916;51.996;5.180;2022-12-07T02:44:50;8.40;72.90
70456;DHT22;57916;51.996;5.180;2022-12-07T02:47:20;8.50;72.70
70456;DHT22;57916;51.996;5.180;2022-12-07T02:49:49;8.50;72.70
70456;DHT22;57916;51.996;5.180;2022-12-07T02:52:17;8.50;72.60
70456;DHT22;57916;51.996;5.180;2022-12-07T02:54:43;8.60;72.50
70456;DHT22;57916;51.996;5.180;2022-12-07T03:02:41;8.70;71.50
70456;DHT22;57916;51.996;5.180;2022-12-07T03:08:32;8.80;70.50
70456;DHT22;57916;51.996;5.180;2022-12-07T03:11:09;8.80;70.20
70456;DHT22;57916;51.996;5.180;2022-12-07T03:16:20;8.90;69.50
70456;DHT22;57916;51.996;5.180;2022-12-07T03:19:13;8.90;69.20
70456;DHT22;57916;51.996;5.180;2022-12-07T03:21:47;8.90;69.00
70456;DHT22;57916;51.996;5.180;2022-12-07T03:24:20;8.90;68.60
70456;DHT22;57916;51.996;5.180;2022-12-07T03:27:01;8.90;68.50
70456;DHT22;57916;51.996;5.180;2022-12-07T03:29:35;8.90;68.50
70456;DHT22;57916;51.996;5.180;2022-12-07T03:32:09;8.80;68.10
70456;DHT22;57916;51.996;5.180;2022-12-07T03:34:47;8.80;68.00
70456;DHT22;57916;51.996;5.180;2022-12-07T03:37:21;8.80;68.00
70456;DHT22;57916;51.996;5.180;2022-12-07T03:40:15;8.80;67.90
70456;DHT22;57916;51.996;5.180;2022-12-07T03:42:44;8.70;67.90
70456;DHT22;57916;51.996;5.180;2022-12-07T03:45:12;8.70;67.90
70456;DHT22;57916;51.996;5.180;2022-12-07T03:47:54;8.70;68.00
70456;DHT22;57916;51.996;5.180;2022-12-07T03:50:42;8.60;67.70
70456;DHT22;57916;51.996;5.180;2022-12-07T03:53:12;8.60;67.60
70456;DHT22;57916;51.996;5.180;2022-12-07T03:55:43;8.60;67.80
70456;DHT22;57916;51.996;5.180;2022-12-07T03:58:16;8.50;68.10
70456;DHT22;57916;51.996;5.180;2022-12-07T04:00:45;8.40;68.20
70456;DHT22;57916;51.996;5.180;2022-12-07T04:03:12;8.40;68.00
70456;DHT22;57916;51.996;5.180;2022-12-07T04:05:39;8.40;68.20
70456;DHT22;57916;51.996;5.180;2022-12-07T04:08:07;8.30;68.60
70456;DHT22;57916;51.996;5.180;2022-12-07T04:10:34;8.20;68.80
70456;DHT22;57916;51.996;5.180;2022-12-07T04:13:01;8.20;69.30
70456;DHT22;57916;51.996;5.180;2022-12-07T04:15:28;8.10;69.50
70456;DHT22;57916;51.996;5.180;2022-12-07T04:17:55;8.10;69.70
70456;DHT22;57916;51.996;5.180;2022-12-07T04:20:22;8.00;69.80
70456;DHT22;57916;51.996;5.180;2022-12-07T04:22:49;8.00;69.90
70456;DHT22;57916;51.996;5.180;2022-12-07T04:25:16;8.00;70.10
70456;DHT22;57916;51.996;5.180;2022-12-07T04:27:43;8.00;70.40
70456;DHT22;57916;51.996;5.180;2022-12-07T04:30:12;7.90;70.40
70456;DHT22;57916;51.996;5.180;2022-12-07T04:32:39;7.90;70.70
70456;DHT22;57916;51.996;5.180;2022-12-07T04:35:07;7.90;70.80
70456;DHT22;57916;51.996;5.180;2022-12-07T04:37:34;7.90;70.70
70456;DHT22;57916;51.996;5.180;2022-12-07T04:40:01;7.90;70.80
70456;DHT22;57916;51.996;5.180;2022-12-07T04:42:28;7.90;70.80
70456;DHT22;57916;51.996;5.180;2022-12-07T04:44:55;8.00;70.80
70456;DHT22;57916;51.996;5.180;2022-12-07T04:47:22;8.00;70.60
70456;DHT22;57916;51.996;5.180;2022-12-07T04:49:49;8.00;70.40
70456;DHT22;57916;51.996;5.180;2022-12-07T04:52:16;8.10;70.20
70456;DHT22;57916;51.996;5.180;2022-12-07T04:54:42;8.10;70.10
70456;DHT22;57916;51.996;5.180;2022-12-07T04:57:09;8.10;69.90
70456;DHT22;57916;51.996;5.180;2022-12-07T04:59:36;8.20;69.70
70456;DHT22;57916;51.996;5.180;2022-12-07T05:02:11;8.10;69.50
70456;DHT22;57916;51.996;5.180;2022-12-07T05:04:38;8.10;69.50
70456;DHT22;57916;51.996;5.180;2022-12-07T05:07:04;8.10;69.50
70456;DHT22;57916;51.996;5.180;2022-12-07T05:09:31;8.00;69.60
70456;DHT22;57916;51.996;5.180;2022-12-07T05:11:58;8.00;69.40
70456;DHT22;57916;51.996;5.180;2022-12-07T05:14:25;8.00;69.50
70456;DHT22;57916;51.996;5.180;2022-12-07T05:16:52;8.00;69.40
70456;DHT22;57916;51.996;5.180;2022-12-07T05:19:20;8.00;69.20
70456;DHT22;57916;51.996;5.180;2022-12-07T05:21:47;8.00;69.10
70456;DHT22;57916;51.996;5.180;2022-12-07T05:24:15;8.00;69.00
70456;DHT22;57916;51.996;5.180;2022-12-07T05:26:43;8.00;69.00
70456;DHT22;57916;51.996;5.180;2022-12-07T05:29:14;8.00;69.00
70456;DHT22;57916;51.996;5.180;2022-12-07T05:31:42;8.00;69.20
70456;DHT22;57916;51.996;5.180;2022-12-07T05:34:09;8.00;69.20
70456;DHT22;57916;51.996;5.180;2022-12-07T05:36:37;8.00;69.70
70456;DHT22;57916;51.996;5.180;2022-12-07T05:39:04;8.00;69.90
70456;DHT22;57916;51.996;5.180;2022-12-07T05:41:31;8.00;70.00
70456;DHT22;57916;51.996;5.180;2022-12-07T05:44:16;8.00;70.60
70456;DHT22;57916;51.996;5.180;2022-12-07T05:46:43;7.90;70.20
70456;DHT22;57916;51.996;5.180;2022-12-07T05:49:10;7.90;70.40
70456;DHT22;57916;51.996;5.180;2022-12-07T05:51:37;7.90;70.60
70456;DHT22;57916;51.996;5.180;2022-12-07T05:54:04;7.90;70.70
70456;DHT22;57916;51.996;5.180;2022-12-07T05:56:31;8.00;70.90
70456;DHT22;57916;51.996;5.180;2022-12-07T05:58:58;7.90;71.00
70456;DHT22;57916;51.996;5.180;2022-12-07T06:01:43;7.90;71.10
70456;DHT22;57916;51.996;5.180;2022-12-07T06:04:10;7.90;71.30
70456;DHT22;57916;51.996;5.180;2022-12-07T06:06:37;8.00;71.40
70456;DHT22;57916;51.996;5.180;2022-12-07T06:09:04;8.00;71.40
70456;DHT22;57916;51.996;5.180;2022-12-07T06:11:31;8.00;71.30
70456;DHT22;57916;51.996;5.180;2022-12-07T06:14:17;8.10;71.40
70456;DHT22;57916;51.996;5.180;2022-12-07T06:16:44;8.10;71.30
70456;DHT22;57916;51.996;5.180;2022-12-07T06:19:11;8.10;71.30
70456;DHT22;57916;51.996;5.180;2022-12-07T06:21:38;8.20;71.30
70456;DHT22;57916;51.996;5.180;2022-12-07T06:24:05;8.20;71.20
70456;DHT22;57916;51.996;5.180;2022-12-07T06:26:32;8.30;71.00
70456;DHT22;57916;51.996;5.180;2022-12-07T06:28:59;8.30;70.60
70456;DHT22;57916;51.996;5.180;2022-12-07T06:31:26;8.40;70.60
70456;DHT22;57916;51.996;5.180;2022-12-07T06:33:58;8.40;70.30
70456;DHT22;57916;51.996;5.180;2022-12-07T06:36:25;8.40;69.90
70456;DHT22;57916;51.996;5.180;2022-12-07T06:38:54;8.40;69.60
70456;DHT22;57916;51.996;5.180;2022-12-07T06:41:21;8.40;69.50
70456;DHT22;57916;51.996;5.180;2022-12-07T06:43:50;8.40;69.50
70456;DHT22;57916;51.996;5.180;2022-12-07T06:46:22;8.40;69.60
70456;DHT22;57916;51.996;5.180;2022-12-07T06:48:49;8.40;69.70
70456;DHT22;57916;51.996;5.180;2022-12-07T06:51:16;8.40;70.20
70456;DHT22;57916;51.996;5.180;2022-12-07T06:53:43;8.30;70.70
70456;DHT22;57916;51.996;5.180;2022-12-07T06:56:10;8.30;71.00
70456;DHT22;57916;51.996;5.180;2022-12-07T06:58:37;8.30;70.90
70456;DHT22;57916;51.996;5.180;2022-12-07T07:01:18;8.30;70.70
70456;DHT22;57916;51.996;5.180;2022-12-07T07:03:46;8.40;70.20
70456;DHT22;57916;51.996;5.180;2022-12-07T07:06:14;8.40;70.00
70456;DHT22;57916;51.996;5.180;2022-12-07T07:08:42;8.40;69.90
70456;DHT22;57916;51.996;5.180;2022-12-07T07:11:10;8.40;69.70
70456;DHT22;57916;51.996;5.180;2022-12-07T07:13:36;8.40;69.60
70456;DHT22;57916;51.996;5.180;2022-12-07T07:16:04;8.40;69.50
70456;DHT22;57916;51.996;5.180;2022-12-07T07:18:31;8.40;69.40
70456;DHT22;57916;51.996;5.180;2022-12-07T07:20:58;8.30;69.40
70456;DHT22;57916;51.996;5.180;2022-12-07T07:23:25;8.20;69.40
70456;DHT22;57916;51.996;5.180;2022-12-07T07:25:52;8.20;69.30
70456;DHT22;57916;51.996;5.180;2022-12-07T07:28:19;8.20;69.70
70456;DHT22;57916;51.996;5.180;2022-12-07T07:30:46;8.10;69.60
70456;DHT22;57916;51.996;5.180;2022-12-07T07:33:14;8.10;69.60
70456;DHT22;57916;51.996;5.180;2022-12-07T07:35:41;8.10;69.80
70456;DHT22;57916;51.996;5.180;2022-12-07T07:38:08;8.00;69.50
70456;DHT22;57916;51.996;5.180;2022-12-07T07:40:35;8.10;69.60
70456;DHT22;57916;51.996;5.180;2022-12-07T07:43:02;8.00;69.60
70456;DHT22;57916;51.996;5.180;2022-12-07T07:45:29;8.00;69.70
70456;DHT22;57916;51.996;5.180;2022-12-07T07:47:56;8.00;69.60
70456;DHT22;57916;51.996;5.180;2022-12-07T07:50:23;7.90;69.60
70456;DHT22;57916;51.996;5.180;2022-12-07T07:52:51;7.90;69.80
70456;DHT22;57916;51.996;5.180;2022-12-07T07:55:18;7.90;69.80
70456;DHT22;57916;51.996;5.180;2022-12-07T07:57:46;7.90;69.90
70456;DHT22;57916;51.996;5.180;2022-12-07T08:00:20;7.90;69.90
70456;DHT22;57916;51.996;5.180;2022-12-07T08:02:48;7.90;69.80
70456;DHT22;57916;51.996;5.180;2022-12-07T08:05:15;7.90;69.90
70456;DHT22;57916;51.996;5.180;2022-12-07T08:07:42;7.90;69.60
70456;DHT22;57916;51.996;5.180;2022-12-07T08:10:11;7.90;69.50
70456;DHT22;57916;51.996;5.180;2022-12-07T08:12:40;7.90;69.80
70456;DHT22;57916;51.996;5.180;2022-12-07T08:15:28;7.90;69.90
70456;DHT22;57916;51.996;5.180;2022-12-07T08:17:55;7.90;70.10
70456;DHT22;57916;51.996;5.180;2022-12-07T08:20:22;7.90;70.30
70456;DHT22;57916;51.996;5.180;2022-12-07T08:22:49;7.90;70.40
70456;DHT22;57916;51.996;5.180;2022-12-07T08:25:17;7.90;70.70
70456;DHT22;57916;51.996;5.180;2022-12-07T08:27:44;7.90;70.70
70456;DHT22;57916;51.996;5.180;2022-12-07T08:30:11;7.90;71.70
70456;DHT22;57916;51.996;5.180;2022-12-07T08:32:38;8.00;70.90
70456;DHT22;57916;51.996;5.180;2022-12-07T08:35:08;8.00;70.90
70456;DHT22;57916;51.996;5.180;2022-12-07T08:37:35;8.00;70.90
70456;DHT22;57916;51.996;5.180;2022-12-07T08:40:04;8.00;71.00
70456;DHT22;57916;51.996;5.180;2022-12-07T08:42:32;8.10;71.10
70456;DHT22;57916;51.996;5.180;2022-12-07T08:45:09;8.10;71.70
70456;DHT22;57916;51.996;5.180;2022-12-07T08:47:40;8.30;72.40
70456;DHT22;57916;51.996;5.180;2022-12-07T08:50:10;8.40;72.80
70456;DHT22;57916;51.996;5.180;2022-12-07T08:52:38;8.60;72.40
70456;DHT22;57916;51.996;5.180;2022-12-07T08:55:06;8.80;71.50
70456;DHT22;57916;51.996;5.180;2022-12-07T08:57:34;9.00;70.50
70456;DHT22;57916;51.996;5.180;2022-12-07T09:00:03;9.00;70.40
70456;DHT22;57916;51.996;5.180;2022-12-07T09:02:31;9.10;70.50
70456;DHT22;57916;51.996;5.180;2022-12-07T09:04:58;9.20;70.40
70456;DHT22;57916;51.996;5.180;2022-12-07T09:07:26;9.20;71.00
70456;DHT22;57916;51.996;5.180;2022-12-07T09:09:53;9.30;70.90
70456;DHT22;57916;51.996;5.180;2022-12-07T09:12:20;9.30;70.70
70456;DHT22;57916;51.996;5.180;2022-12-07T09:14:47;9.40;70.40
70456;DHT22;57916;51.996;5.180;2022-12-07T09:17:14;9.40;70.60
70456;DHT22;57916;51.996;5.180;2022-12-07T09:19:41;9.40;70.60
70456;DHT22;57916;51.996;5.180;2022-12-07T09:22:09;9.50;70.30
70456;DHT22;57916;51.996;5.180;2022-12-07T09:24:36;9.60;70.90
70456;DHT22;57916;51.996;5.180;2022-12-07T09:27:03;9.70;69.70
70456;DHT22;57916;51.996;5.180;2022-12-07T09:29:30;9.80;69.30
70456;DHT22;57916;51.996;5.180;2022-12-07T09:31:57;9.80;69.00
70456;DHT22;57916;51.996;5.180;2022-12-07T09:34:24;9.90;68.70
70456;DHT22;57916;51.996;5.180;2022-12-07T09:36:51;10.00;69.30
70456;DHT22;57916;51.996;5.180;2022-12-07T09:39:18;10.10;70.30
70456;DHT22;57916;51.996;5.180;2022-12-07T09:41:45;10.20;70.80
70456;DHT22;57916;51.996;5.180;2022-12-07T09:44:23;10.30;70.30
70456;DHT22;57916;51.996;5.180;2022-12-07T09:46:51;10.50;70.10
70456;DHT22;57916;51.996;5.180;2022-12-07T09:49:22;10.60;70.00
70456;DHT22;57916;51.996;5.180;2022-12-07T09:54:36;10.90;68.90
70456;DHT22;57916;51.996;5.180;2022-12-07T09:57:08;11.00;68.40
70456;DHT22;57916;51.996;5.180;2022-12-07T09:59:35;11.00;68.70
70456;DHT22;57916;51.996;5.180;2022-12-07T10:02:42;11.10;68.60
70456;DHT22;57916;51.996;5.180;2022-12-07T10:05:20;11.20;68.00
70456;DHT22;57916;51.996;5.180;2022-12-07T10:07:50;11.30;67.30
70456;DHT22;57916;51.996;5.180;2022-12-07T10:10:31;11.20;66.60
70456;DHT22;57916;51.996;5.180;2022-12-07T10:13:05;11.20;66.50
70456;DHT22;57916;51.996;5.180;2022-12-07T10:15:59;11.20;66.40
70456;DHT22;57916;51.996;5.180;2022-12-07T10:18:41;11.20;66.80
70456;DHT22;57916;51.996;5.180;2022-12-07T10:23:37;11.10;66.40
70456;DHT22;57916;51.996;5.180;2022-12-07T10:26:35;11.00;66.10
70456;DHT22;57916;51.996;5.180;2022-12-07T10:31:41;10.90;66.60
70456;DHT22;57916;51.996;5.180;2022-12-07T10:34:28;10.90;66.90
70456;DHT22;57916;51.996;5.180;2022-12-07T10:39:55;10.80;67.30
70456;DHT22;57916;51.996;5.180;2022-12-07T10:47:46;10.90;67.60
70456;DHT22;57916;51.996;5.180;2022-12-07T11:00:46;11.00;68.70
70456;DHT22;57916;51.996;5.180;2022-12-07T11:06:39;11.10;67.20
70456;DHT22;57916;51.996;5.180;2022-12-07T11:17:42;11.00;67.50
70456;DHT22;57916;51.996;5.180;2022-12-07T11:20:39;10.90;67.30
70456;DHT22;57916;51.996;5.180;2022-12-07T11:28:45;10.60;68.00
70456;DHT22;57916;51.996;5.180;2022-12-07T11:31:42;10.60;68.60
70456;DHT22;57916;51.996;5.180;2022-12-07T11:34:08;10.60;69.20
70456;DHT22;57916;51.996;5.180;2022-12-07T11:36:44;10.60;69.40
70456;DHT22;57916;51.996;5.180;2022-12-07T11:39:38;10.70;69.60
70456;DHT22;57916;51.996;5.180;2022-12-07T11:42:14;10.70;69.60
70456;DHT22;57916;51.996;5.180;2022-12-07T11:47:34;10.80;70.00
70456;DHT22;57916;51.996;5.180;2022-12-07T12:03:37;11.10;69.40
70456;DHT22;57916;51.996;5.180;2022-12-07T12:06:06;11.10;69.10
70456;DHT22;57916;51.996;5.180;2022-12-07T12:08:39;11.10;68.70
70456;DHT22;57916;51.996;5.180;2022-12-07T12:20:36;11.30;68.30
70456;DHT22;57916;51.996;5.180;2022-12-07T12:25:54;11.20;67.70
70456;DHT22;57916;51.996;5.180;2022-12-07T12:28:56;11.30;67.50
70456;DHT22;57916;51.996;5.180;2022-12-07T12:31:38;11.20;67.70
70456;DHT22;57916;51.996;5.180;2022-12-07T12:34:29;11.30;67.70
70456;DHT22;57916;51.996;5.180;2022-12-07T12:36:57;11.30;67.00
70456;DHT22;57916;51.996;5.180;2022-12-07T12:39:24;11.30;66.80
70456;DHT22;57916;51.996;5.180;2022-12-07T12:41:56;11.30;66.90
70456;DHT22;57916;51.996;5.180;2022-12-07T12:47:03;11.20;66.30
70456;DHT22;57916;51.996;5.180;2022-12-07T12:57:36;11.30;66.60
70456;DHT22;57916;51.996;5.180;2022-12-07T13:00:22;11.30;66.40
70456;DHT22;57916;51.996;5.180;2022-12-07T13:02:56;11.20;66.30
70456;DHT22;57916;51.996;5.180;2022-12-07T13:05:30;11.20;66.30
70456;DHT22;57916;51.996;5.180;2022-12-07T13:08:00;11.20;66.80
70456;DHT22;57916;51.996;5.180;2022-12-07T13:29:16;11.10;66.10
70456;DHT22;57916;51.996;5.180;2022-12-07T13:34:41;11.00;66.20
70456;DHT22;57916;51.996;5.180;2022-12-07T13:37:27;11.00;65.90
70456;DHT22;57916;51.996;5.180;2022-12-07T13:40:20;10.80;65.40
70456;DHT22;57916;51.996;5.180;2022-12-07T13:42:47;10.80;65.20
70456;DHT22;57916;51.996;5.180;2022-12-07T13:48:32;10.70;65.40
70456;DHT22;57916;51.996;5.180;2022-12-07T13:51:03;10.70;66.00
70456;DHT22;57916;51.996;5.180;2022-12-07T13:53:30;10.70;66.60
70456;DHT22;57916;51.996;5.180;2022-12-07T13:55:58;10.70;66.70
70456;DHT22;57916;51.996;5.180;2022-12-07T13:58:27;10.70;66.30
70456;DHT22;57916;51.996;5.180;2022-12-07T14:00:56;10.70;66.30
70456;DHT22;57916;51.996;5.180;2022-12-07T14:03:33;10.60;66.40
70456;DHT22;57916;51.996;5.180;2022-12-07T14:06:17;10.60;66.40
70456;DHT22;57916;51.996;5.180;2022-12-07T14:08:45;10.50;66.60
70456;DHT22;57916;51.996;5.180;2022-12-07T14:11:18;10.50;66.60
70456;DHT22;57916;51.996;5.180;2022-12-07T14:13:58;10.40;66.70
70456;DHT22;57916;51.996;5.180;2022-12-07T14:16:31;10.40;67.10
70456;DHT22;57916;51.996;5.180;2022-12-07T14:19:01;10.30;66.90
70456;DHT22;57916;51.996;5.180;2022-12-07T14:21:30;10.30;67.00
70456;DHT22;57916;51.996;5.180;2022-12-07T14:26:44;10.30;68.00
70456;DHT22;57916;51.996;5.180;2022-12-07T14:31:54;10.30;67.60
70456;DHT22;57916;51.996;5.180;2022-12-07T14:34:22;10.30;67.40
70456;DHT22;57916;51.996;5.180;2022-12-07T14:36:49;10.30;67.40
70456;DHT22;57916;51.996;5.180;2022-12-07T14:39:16;10.20;67.30
70456;DHT22;57916;51.996;5.180;2022-12-07T14:41:44;10.20;67.10
70456;DHT22;57916;51.996;5.180;2022-12-07T14:44:22;10.20;67.40
70456;DHT22;57916;51.996;5.180;2022-12-07T14:46:54;10.10;67.60
70456;DHT22;57916;51.996;5.180;2022-12-07T14:49:40;10.10;67.80
70456;DHT22;57916;51.996;5.180;2022-12-07T14:52:21;10.00;68.00
70456;DHT22;57916;51.996;5.180;2022-12-07T14:55:14;10.00;68.10
70456;DHT22;57916;51.996;5.180;2022-12-07T14:57:42;10.00;68.50
70456;DHT22;57916;51.996;5.180;2022-12-07T15:00:14;9.90;68.30
70456;DHT22;57916;51.996;5.180;2022-12-07T15:02:41;9.90;68.40
70456;DHT22;57916;51.996;5.180;2022-12-07T15:05:10;9.90;68.40
70456;DHT22;57916;51.996;5.180;2022-12-07T15:07:42;9.90;68.40
70456;DHT22;57916;51.996;5.180;2022-12-07T15:10:28;9.90;68.30
70456;DHT22;57916;51.996;5.180;2022-12-07T15:12:59;9.90;68.20
70456;DHT22;57916;51.996;5.180;2022-12-07T15:15:47;9.90;68.10
70456;DHT22;57916;51.996;5.180;2022-12-07T15:18:15;9.90;68.10
70456;DHT22;57916;51.996;5.180;2022-12-07T15:20:41;9.90;68.00
70456;DHT22;57916;51.996;5.180;2022-12-07T15:23:10;9.90;68.00
70456;DHT22;57916;51.996;5.180;2022-12-07T15:25:41;9.80;68.00
70456;DHT22;57916;51.996;5.180;2022-12-07T15:28:08;9.80;68.00
70456;DHT22;57916;51.996;5.180;2022-12-07T15:30:37;9.80;67.90
70456;DHT22;57916;51.996;5.180;2022-12-07T15:33:04;9.70;67.90
70456;DHT22;57916;51.996;5.180;2022-12-07T15:35:31;9.70;68.00
70456;DHT22;57916;51.996;5.180;2022-12-07T15:37:58;9.70;68.10
70456;DHT22;57916;51.996;5.180;2022-12-07T15:40:25;9.70;67.90
70456;DHT22;57916;51.996;5.180;2022-12-07T15:42:52;9.70;67.90
70456;DHT22;57916;51.996;5.180;2022-12-07T15:45:19;9.60;67.80
70456;DHT22;57916;51.996;5.180;2022-12-07T15:47:46;9.60;68.10
70456;DHT22;57916;51.996;5.180;2022-12-07T15:50:33;9.60;68.10
70456;DHT22;57916;51.996;5.180;2022-12-07T15:53:00;9.60;68.30
70456;DHT22;57916;51.996;5.180;2022-12-07T15:55:26;9.60;68.70
70456;DHT22;57916;51.996;5.180;2022-12-07T15:57:53;9.60;68.80
70456;DHT22;57916;51.996;5.180;2022-12-07T16:00:20;9.60;68.80
70456;DHT22;57916;51.996;5.180;2022-12-07T16:02:47;9.50;68.60
70456;DHT22;57916;51.996;5.180;2022-12-07T16:05:14;9.50;68.80
70456;DHT22;57916;51.996;5.180;2022-12-07T16:07:41;9.40;68.80
70456;DHT22;57916;51.996;5.180;2022-12-07T16:10:09;9.40;69.00
70456;DHT22;57916;51.996;5.180;2022-12-07T16:12:36;9.40;68.90
70456;DHT22;57916;51.996;5.180;2022-12-07T16:15:03;9.40;68.90
70456;DHT22;57916;51.996;5.180;2022-12-07T16:17:30;9.40;68.90
70456;DHT22;57916;51.996;5.180;2022-12-07T16:19:57;9.30;68.90
70456;DHT22;57916;51.996;5.180;2022-12-07T16:22:24;9.30;69.00
70456;DHT22;57916;51.996;5.180;2022-12-07T16:24:51;9.30;68.90
70456;DHT22;57916;51.996;5.180;2022-12-07T16:27:18;9.30;68.80
70456;DHT22;57916;51.996;5.180;2022-12-07T16:29:45;9.30;68.80
70456;DHT22;57916;51.996;5.180;2022-12-07T16:32:12;9.30;69.00
70456;DHT22;57916;51.996;5.180;2022-12-07T16:34:39;9.30;68.80
70456;DHT22;57916;51.996;5.180;2022-12-07T16:37:06;9.40;68.70
70456;DHT22;57916;51.996;5.180;2022-12-07T16:39:33;9.40;68.60
70456;DHT22;57916;51.996;5.180;2022-12-07T16:42:01;9.50;68.60
70456;DHT22;57916;51.996;5.180;2022-12-07T16:44:27;9.50;68.30
70456;DHT22;57916;51.996;5.180;2022-12-07T16:46:58;9.50;68.10
70456;DHT22;57916;51.996;5.180;2022-12-07T16:49:25;9.40;67.80
70456;DHT22;57916;51.996;5.180;2022-12-07T16:51:52;9.50;67.80
70456;DHT22;57916;51.996;5.180;2022-12-07T16:54:39;9.50;67.80
70456;DHT22;57916;51.996;5.180;2022-12-07T16:57:06;9.50;67.80
70456;DHT22;57916;51.996;5.180;2022-12-07T16:59:33;9.50;67.50
70456;DHT22;57916;51.996;5.180;2022-12-07T17:02:00;9.50;67.70
70456;DHT22;57916;51.996;5.180;2022-12-07T17:04:27;9.50;67.60
70456;DHT22;57916;51.996;5.180;2022-12-07T17:06:54;9.50;67.60
70456;DHT22;57916;51.996;5.180;2022-12-07T17:09:21;9.50;67.60
70456;DHT22;57916;51.996;5.180;2022-12-07T17:11:48;9.40;67.50
70456;DHT22;57916;51.996;5.180;2022-12-07T17:14:15;9.40;67.60
70456;DHT22;57916;51.996;5.180;2022-12-07T17:17:01;9.30;67.60
70456;DHT22;57916;51.996;5.180;2022-12-07T17:19:28;9.30;67.70
70456;DHT22;57916;51.996;5.180;2022-12-07T17:21:55;9.30;68.00
70456;DHT22;57916;51.996;5.180;2022-12-07T17:24:22;9.30;67.90
70456;DHT22;57916;51.996;5.180;2022-12-07T17:26:49;9.20;67.90
70456;DHT22;57916;51.996;5.180;2022-12-07T17:29:17;9.20;68.00
70456;DHT22;57916;51.996;5.180;2022-12-07T17:31:46;9.20;68.10
70456;DHT22;57916;51.996;5.180;2022-12-07T17:34:17;9.20;68.20
70456;DHT22;57916;51.996;5.180;2022-12-07T17:36:45;9.20;68.30
70456;DHT22;57916;51.996;5.180;2022-12-07T17:39:15;9.20;68.30
70456;DHT22;57916;51.996;5.180;2022-12-07T17:41:43;9.20;68.40
70456;DHT22;57916;51.996;5.180;2022-12-07T17:44:28;9.20;68.40
70456;DHT22;57916;51.996;5.180;2022-12-07T17:46:55;9.20;68.50
70456;DHT22;57916;51.996;5.180;2022-12-07T17:49:28;9.20;68.50
70456;DHT22;57916;51.996;5.180;2022-12-07T17:51:55;9.20;68.40
70456;DHT22;57916;51.996;5.180;2022-12-07T17:54:40;9.20;68.50
70456;DHT22;57916;51.996;5.180;2022-12-07T17:57:08;9.30;68.60
70456;DHT22;57916;51.996;5.180;2022-12-07T17:59:35;9.20;68.60
70456;DHT22;57916;51.996;5.180;2022-12-07T18:02:02;9.30;68.60
70456;DHT22;57916;51.996;5.180;2022-12-07T18:04:29;9.30;68.50
70456;DHT22;57916;51.996;5.180;2022-12-07T18:06:56;9.30;68.60
70456;DHT22;57916;51.996;5.180;2022-12-07T18:09:24;9.30;68.90
70456;DHT22;57916;51.996;5.180;2022-12-07T18:11:51;9.30;69.00
70456;DHT22;57916;51.996;5.180;2022-12-07T18:14:18;9.40;68.90
70456;DHT22;57916;51.996;5.180;2022-12-07T18:16:45;9.40;68.80
70456;DHT22;57916;51.996;5.180;2022-12-07T18:19:12;9.40;68.80
70456;DHT22;57916;51.996;5.180;2022-12-07T18:21:41;9.40;68.80
70456;DHT22;57916;51.996;5.180;2022-12-07T18:24:10;9.40;68.90